Atlanta, MI

11:09 PM EST on January 29, 2015 (GMT -0500)
KMILEWIS2 | Change Station
CLOSE
Current Station
Personal Weather Station
Location: Lewiston, MI
Elevation: 1266 ft
Nearby Weather Stations

Elev 1266 ft 44.89 °N, 84.36 °W | Updated 9 minutes ago

Snow
Snow
14.9 °F
Feels Like 8 °F
N
4.5
Wind Variable Wind from NW
Gusts 7.6 mph

Today
High -- | Low -- °F
--% Chance of Precip.
Yesterday
High -- | Low -- °F
Precip. -- in
7:59 AM 5:39 PM
Waxing Gibbous, 79% visible
Pressure 30.15 in
Visibility 6.0 miles
Clouds Overcast 2000 ft
Windchill 8 °F
Dew Point 4 °F
Humidity 61%
Rainfall 0.00 in
Snow Depth Not available.
UV 0 out of 12
Pollen .10 out of 12
Air Quality Not available.
Flu Activity Not available.
METAR KGLR 300353Z AUTO 33008G15KT 6SM -SN OVC020 M10/M13 A3008 RMK AO2 PK WND 33030/0256 SLP210 P0000 T11001128

More Conditions Fewer Conditions

Pressure 30.15 in
Visibility 6.0 miles
Clouds Overcast 2000 ft
Windchill 8 °F
Dew Point 4 °F
Humidity 61%
Rainfall 0.00 in
Snow Depth Not available.
UV 0 out of 12
Pollen .10 out of 12
Air Quality Not available.
Flu Activity Not available.
METAR KGLR 300353Z AUTO 33008G15KT 6SM -SN OVC020 M10/M13 A3008 RMK AO2 PK WND 33030/0256 SLP210 P0000 T11001128

More Conditions Fewer Conditions

Nowcast | as of 11:00 PM EST on January 29, 2015

At 12 am...blowing snow. Snow showers likely. Temperature 10 above. Northwest winds 16 mph with gusts to 30 mph. Wind chill 7 below. At 2 am...blowing snow. Snow showers likely. Temperature 6 above. Northwest winds 14 mph with gusts to 30 mph. Wind chill 11 below. At 4 am...blowing snow. Snow showers likely. Temperature 4 above. Northwest winds 13 mph with gusts to 25 mph. Wind chill 13 below. At 6 am...mostly cloudy. Temperature 3 above. Northwest winds 11 mph. Wind chill 13 below.

×

10-Day Weather Forecast

Almanac

Astronomy

Jan. 29, 2015 Rise Set
Actual Time
Civil Twilight
Nautical Twilight
Astronomical Twilight
Moon
Length of Visible Light
Length of Day
Tomorrow will be .
, % of the Moon is Illuminated

Today's Extremes

State Highs State Lows

Community

WunderPhotos

Upload Photos

1,791,699 photos uploaded!

WunderBlogs® & News

Nearby

Air Quality

  Air Quality AQ Index Pollutant
Not available.

Snow Depth

Station Depth Elevation

Earthquake Activity

City Distance Mag. Time & Date
Minimum magnitude displayed is 2.5.

Coastal Water Temperatures

Place Temperature

Nearby Weather Stations